createdAt,value
2018-12-13T05:00:30.459Z,5.17
2018-12-13T05:02:58.521Z,5.57
2018-12-13T05:05:26.715Z,4.95
2018-12-13T05:07:55.117Z,5.67
2018-12-13T05:10:35.609Z,6.15
2018-12-13T05:13:03.662Z,5.67
2018-12-13T05:15:31.766Z,5.93
2018-12-13T05:17:59.843Z,5.10
2018-12-13T05:20:27.916Z,6.17
2018-12-13T05:22:56.231Z,4.77
2018-12-13T05:25:25.419Z,5.50
2018-12-13T05:27:53.521Z,5.63
2018-12-13T05:30:21.616Z,5.50
2018-12-13T05:32:49.755Z,6.03
2018-12-13T05:35:17.923Z,6.10
2018-12-13T05:37:58.529Z,6.12
2018-12-13T05:40:26.783Z,6.40
2018-12-13T05:42:55.018Z,5.80
2018-12-13T05:45:23.529Z,6.07
2018-12-13T05:47:51.575Z,5.75
2018-12-13T05:50:19.651Z,6.07
2018-12-13T05:52:47.727Z,6.70
2018-12-13T05:55:16.596Z,7.00
2018-12-13T05:57:44.708Z,6.20
2018-12-13T06:00:12.820Z,6.13
2018-12-13T06:02:40.917Z,7.03
2018-12-13T06:05:08.991Z,7.37
2018-12-13T06:07:37.111Z,6.80
2018-12-13T06:10:05.535Z,5.35
2018-12-13T06:12:33.636Z,6.67
2018-12-13T06:15:03.309Z,7.33
2018-12-13T06:17:31.567Z,7.53
2018-12-13T06:19:59.651Z,7.53
2018-12-13T06:22:27.726Z,7.97
2018-12-13T06:24:56.011Z,6.67
2018-12-13T06:27:24.304Z,7.20
2018-12-13T06:29:58.691Z,7.42
2018-12-13T06:32:22.439Z,7.65
2018-12-13T06:34:50.528Z,7.33
2018-12-13T06:37:19.302Z,7.37
2018-12-13T06:39:47.443Z,6.72
2018-12-13T06:42:15.544Z,7.70
2018-12-13T06:44:44.364Z,7.23
2018-12-13T06:47:12.427Z,6.90
2018-12-13T06:49:40.518Z,7.93
2018-12-13T06:52:08.608Z,7.87
2018-12-13T06:54:37.408Z,7.45
2018-12-13T06:57:06.841Z,7.60
2018-12-13T06:59:37.729Z,8.33
2018-12-13T07:02:06.367Z,7.03
2018-12-13T07:04:57.419Z,7.87
2018-12-13T07:07:25.725Z,7.10
2018-12-13T07:09:53.839Z,7.90
2018-12-13T07:12:22.038Z,7.10
2018-12-13T07:14:50.215Z,6.70
2018-12-13T07:17:18.375Z,6.90
2018-12-13T07:19:46.548Z,6.90
2018-12-13T07:22:15.858Z,7.70
2018-12-13T07:24:44.382Z,7.50
2018-12-13T07:27:16.126Z,7.83
2018-12-13T07:29:44.547Z,7.80
2018-12-13T07:32:13.323Z,6.77
2018-12-13T07:34:41.406Z,7.00
2018-12-13T07:37:20.547Z,6.87
2018-12-13T07:39:48.684Z,6.90
2018-12-13T07:42:16.960Z,6.90
2018-12-13T08:04:57.308Z,6.87
2018-12-13T08:24:47.379Z,6.00
2018-12-13T08:47:32.944Z,6.00
2018-12-13T08:50:01.641Z,7.17
2018-12-13T09:09:14.576Z,7.27
2018-12-13T09:11:42.659Z,7.30
2018-12-13T09:34:24.647Z,6.80
2018-12-13T09:36:52.743Z,7.00
2018-12-13T09:39:20.815Z,7.03
2018-12-13T09:41:48.930Z,7.40
2018-12-13T09:44:17.520Z,7.23
2018-12-13T10:04:05.156Z,7.13
2018-12-13T10:44:06.228Z,7.13
2018-12-13T10:46:35.560Z,7.20
2018-12-13T10:49:03.627Z,7.23
2018-12-13T10:51:31.700Z,7.23
2018-12-13T11:11:18.664Z,7.80
2018-12-13T12:11:44.414Z,7.70
2018-12-13T12:34:25.891Z,7.17
2018-12-13T12:36:53.964Z,7.70
2018-12-13T12:56:41.470Z,8.40
2018-12-13T12:59:09.563Z,7.97
2018-12-13T13:18:56.916Z,8.20
2018-12-13T13:38:44.475Z,8.63
2018-12-13T13:58:31.931Z,6.90
2018-12-13T14:01:00.134Z,6.87
2018-12-13T14:20:47.499Z,5.50
2018-12-13T14:40:36.263Z,7.10
2018-12-13T14:43:04.364Z,6.53
2018-12-13T14:45:32.444Z,6.90
2018-12-13T15:08:22.495Z,7.70
2018-12-13T15:28:09.903Z,7.70
2018-12-13T15:30:37.987Z,8.00
2018-12-13T15:33:06.071Z,7.83
2018-12-13T15:52:54.524Z,8.57
2018-12-13T16:15:42.578Z,6.37
2018-12-13T16:38:25.146Z,7.03
2018-12-13T17:18:26.976Z,8.87
2018-12-13T17:38:14.895Z,8.67
2018-12-13T18:18:22.078Z,8.13
2018-12-13T18:38:13.989Z,9.83
2018-12-13T18:58:05.570Z,7.50
2018-12-13T19:17:52.677Z,7.47
2018-12-13T19:20:20.763Z,7.13
2018-12-13T19:43:01.999Z,7.50
2018-12-13T20:02:50.106Z,7.33
2018-12-13T20:05:18.296Z,7.49
2018-12-13T20:07:46.423Z,6.72
2018-12-13T20:10:14.579Z,6.90
2018-12-13T20:12:42.854Z,7.50
2018-12-13T20:32:29.975Z,9.57
2018-12-13T20:34:58.359Z,9.00
2018-12-13T20:37:26.476Z,9.57
2018-12-13T20:39:55.235Z,10.45
2018-12-13T20:42:23.317Z,9.13
2018-12-13T20:44:51.465Z,10.75
2018-12-13T20:47:19.586Z,11.13
2018-12-13T20:49:47.752Z,9.90
2018-12-13T20:52:16.479Z,7.83
2018-12-13T20:54:44.688Z,8.83
2018-12-13T21:14:31.892Z,10.87
2018-12-13T21:17:00.253Z,9.17
2018-12-13T21:36:47.707Z,6.67
2018-12-13T21:39:17.023Z,6.90
2018-12-13T21:41:45.328Z,8.60
2018-12-13T21:44:13.664Z,6.65
2018-12-13T21:46:42.633Z,5.87
2018-12-13T21:49:10.794Z,7.67
2018-12-13T21:51:38.949Z,6.58
2018-12-13T21:54:10.965Z,7.20
2018-12-13T21:56:41.064Z,7.20
2018-12-13T21:59:09.314Z,7.10
2018-12-13T22:01:37.572Z,6.80
2018-12-13T22:04:05.892Z,6.63
2018-12-13T22:06:34.291Z,6.97
2018-12-13T22:29:15.755Z,7.20
2018-12-13T22:31:44.259Z,5.77
2018-12-13T22:34:13.307Z,6.23
2018-12-13T22:36:42.003Z,7.20
2018-12-13T22:39:10.150Z,6.47
2018-12-13T22:41:38.312Z,6.60
2018-12-13T22:44:06.880Z,7.23
2018-12-13T22:46:35.670Z,6.67
2018-12-13T22:49:03.868Z,6.30
2018-12-13T22:51:31.983Z,6.28
2018-12-13T22:54:00.125Z,6.37
2018-12-13T22:56:29.487Z,6.42
2018-12-13T22:58:57.615Z,5.73
2018-12-13T23:01:25.824Z,6.57
2018-12-13T23:03:53.985Z,6.93
2018-12-13T23:06:22.115Z,5.90
2018-12-13T23:08:50.179Z,6.62
2018-12-13T23:11:18.384Z,6.53
2018-12-13T23:13:53.315Z,6.60
2018-12-13T23:16:21.712Z,6.80
2018-12-13T23:18:51.425Z,6.47
2018-12-13T23:21:19.814Z,6.70
2018-12-13T23:23:50.595Z,6.43
2018-12-13T23:26:21.142Z,7.50
2018-12-13T23:31:33.200Z,6.70
2018-12-13T23:34:05.007Z,6.42
2018-12-13T23:36:36.219Z,5.83
2018-12-13T23:39:06.343Z,6.80
2018-12-13T23:41:39.230Z,7.30
2018-12-13T23:44:05.105Z,6.90
2018-12-13T23:46:33.283Z,7.30
2018-12-13T23:51:43.441Z,7.23
2018-12-13T23:54:12.115Z,7.40
2018-12-13T23:56:40.722Z,7.47
2018-12-13T23:59:08.832Z,7.80
